sensor_id;sensor_type;location;lat;lon;timestamp;P1;durP1;ratioP1;P2;durP2;ratioP2
19434;SDS011;9853;50.848;4.108;2023-08-07T00:00:23;4.57;;;1.02;;
19434;SDS011;9853;50.848;4.108;2023-08-07T00:02:24;5.53;;;1.33;;
19434;SDS011;9853;50.848;4.108;2023-08-07T00:04:25;3.67;;;1.10;;
19434;SDS011;9853;50.848;4.108;2023-08-07T00:06:26;1.95;;;1.05;;
19434;SDS011;9853;50.848;4.108;2023-08-07T00:08:26;4.72;;;1.10;;
19434;SDS011;9853;50.848;4.108;2023-08-07T00:10:27;6.50;;;1.40;;
19434;SDS011;9853;50.848;4.108;2023-08-07T00:12:28;3.03;;;0.80;;
19434;SDS011;9853;50.848;4.108;2023-08-07T00:14:28;2.88;;;1.20;;
19434;SDS011;9853;50.848;4.108;2023-08-07T00:16:29;3.53;;;1.10;;
19434;SDS011;9853;50.848;4.108;2023-08-07T00:18:30;2.50;;;1.08;;
19434;SDS011;9853;50.848;4.108;2023-08-07T00:20:31;6.32;;;1.77;;
19434;SDS011;9853;50.848;4.108;2023-08-07T00:22:32;3.50;;;1.10;;
19434;SDS011;9853;50.848;4.108;2023-08-07T00:24:33;3.05;;;1.08;;
19434;SDS011;9853;50.848;4.108;2023-08-07T00:26:33;1.55;;;0.90;;
19434;SDS011;9853;50.848;4.108;2023-08-07T00:28:34;5.15;;;1.42;;
19434;SDS011;9853;50.848;4.108;2023-08-07T00:30:35;3.38;;;1.00;;
19434;SDS011;9853;50.848;4.108;2023-08-07T00:32:35;2.53;;;1.10;;
19434;SDS011;9853;50.848;4.108;2023-08-07T00:34:36;2.65;;;1.15;;
19434;SDS011;9853;50.848;4.108;2023-08-07T00:36:37;3.40;;;1.30;;
19434;SDS011;9853;50.848;4.108;2023-08-07T00:38:38;1.83;;;0.85;;
19434;SDS011;9853;50.848;4.108;2023-08-07T00:40:39;3.95;;;1.20;;
19434;SDS011;9853;50.848;4.108;2023-08-07T00:42:41;3.22;;;1.30;;
19434;SDS011;9853;50.848;4.108;2023-08-07T00:44:42;5.28;;;1.58;;
19434;SDS011;9853;50.848;4.108;2023-08-07T00:46:43;7.15;;;1.85;;
19434;SDS011;9853;50.848;4.108;2023-08-07T00:48:44;4.82;;;1.38;;
19434;SDS011;9853;50.848;4.108;2023-08-07T00:50:46;2.40;;;1.10;;
19434;SDS011;9853;50.848;4.108;2023-08-07T00:52:48;2.60;;;0.90;;
19434;SDS011;9853;50.848;4.108;2023-08-07T00:54:49;2.92;;;1.10;;
19434;SDS011;9853;50.848;4.108;2023-08-07T00:56:50;3.63;;;1.45;;
19434;SDS011;9853;50.848;4.108;2023-08-07T00:58:51;5.07;;;1.63;;
19434;SDS011;9853;50.848;4.108;2023-08-07T01:00:52;7.63;;;1.23;;
19434;SDS011;9853;50.848;4.108;2023-08-07T01:02:53;2.10;;;1.20;;
19434;SDS011;9853;50.848;4.108;2023-08-07T01:04:56;3.90;;;0.80;;
19434;SDS011;9853;50.848;4.108;2023-08-07T01:06:57;2.83;;;1.20;;
19434;SDS011;9853;50.848;4.108;2023-08-07T01:08:59;7.57;;;1.17;;
19434;SDS011;9853;50.848;4.108;2023-08-07T01:14:13;2.50;;;0.90;;
19434;SDS011;9853;50.848;4.108;2023-08-07T01:15:54;2.70;;;1.30;;
19434;SDS011;9853;50.848;4.108;2023-08-07T01:17:59;1.58;;;0.82;;
19434;SDS011;9853;50.848;4.108;2023-08-07T01:20:01;2.03;;;1.10;;
19434;SDS011;9853;50.848;4.108;2023-08-07T01:22:06;3.35;;;1.10;;
19434;SDS011;9853;50.848;4.108;2023-08-07T01:24:12;3.08;;;1.20;;
19434;SDS011;9853;50.848;4.108;2023-08-07T01:26:13;2.00;;;1.20;;
19434;SDS011;9853;50.848;4.108;2023-08-07T01:28:24;2.70;;;1.30;;
19434;SDS011;9853;50.848;4.108;2023-08-07T01:30:36;7.88;;;1.40;;
19434;SDS011;9853;50.848;4.108;2023-08-07T01:32:59;3.67;;;1.05;;
19434;SDS011;9853;50.848;4.108;2023-08-07T01:35:02;3.25;;;1.00;;
19434;SDS011;9853;50.848;4.108;2023-08-07T01:37:04;3.40;;;0.98;;
19434;SDS011;9853;50.848;4.108;2023-08-07T01:39:07;5.43;;;1.20;;
19434;SDS011;9853;50.848;4.108;2023-08-07T01:41:09;4.30;;;0.90;;
19434;SDS011;9853;50.848;4.108;2023-08-07T01:43:10;3.53;;;1.00;;
19434;SDS011;9853;50.848;4.108;2023-08-07T01:45:10;3.13;;;1.17;;
19434;SDS011;9853;50.848;4.108;2023-08-07T01:47:11;2.30;;;1.00;;
19434;SDS011;9853;50.848;4.108;2023-08-07T01:49:12;3.90;;;1.00;;
19434;SDS011;9853;50.848;4.108;2023-08-07T01:51:13;4.25;;;1.20;;
19434;SDS011;9853;50.848;4.108;2023-08-07T01:53:13;3.03;;;1.05;;
19434;SDS011;9853;50.848;4.108;2023-08-07T01:55:17;4.40;;;0.90;;
19434;SDS011;9853;50.848;4.108;2023-08-07T01:57:25;2.10;;;0.90;;
19434;SDS011;9853;50.848;4.108;2023-08-07T01:59:26;2.70;;;1.02;;
19434;SDS011;9853;50.848;4.108;2023-08-07T02:01:28;1.85;;;0.90;;
19434;SDS011;9853;50.848;4.108;2023-08-07T02:03:28;4.30;;;1.05;;
19434;SDS011;9853;50.848;4.108;2023-08-07T02:05:29;3.05;;;1.20;;
19434;SDS011;9853;50.848;4.108;2023-08-07T02:07:30;4.45;;;0.90;;
19434;SDS011;9853;50.848;4.108;2023-08-07T02:09:31;6.97;;;1.10;;
19434;SDS011;9853;50.848;4.108;2023-08-07T02:11:32;1.55;;;0.80;;
19434;SDS011;9853;50.848;4.108;2023-08-07T02:13:32;2.55;;;0.90;;
19434;SDS011;9853;50.848;4.108;2023-08-07T02:15:34;12.77;;;1.27;;
19434;SDS011;9853;50.848;4.108;2023-08-07T02:17:36;5.30;;;1.17;;
19434;SDS011;9853;50.848;4.108;2023-08-07T02:19:38;2.25;;;0.95;;
19434;SDS011;9853;50.848;4.108;2023-08-07T02:21:39;2.95;;;1.13;;
19434;SDS011;9853;50.848;4.108;2023-08-07T02:23:40;2.58;;;0.75;;
19434;SDS011;9853;50.848;4.108;2023-08-07T02:25:41;1.75;;;1.10;;
19434;SDS011;9853;50.848;4.108;2023-08-07T02:27:42;5.28;;;1.30;;
19434;SDS011;9853;50.848;4.108;2023-08-07T02:29:43;1.48;;;0.73;;
19434;SDS011;9853;50.848;4.108;2023-08-07T02:31:44;2.90;;;0.90;;
19434;SDS011;9853;50.848;4.108;2023-08-07T02:33:45;1.80;;;0.98;;
19434;SDS011;9853;50.848;4.108;2023-08-07T02:35:46;1.13;;;0.70;;
19434;SDS011;9853;50.848;4.108;2023-08-07T02:37:46;2.22;;;0.70;;
19434;SDS011;9853;50.848;4.108;2023-08-07T02:39:47;3.20;;;1.02;;
19434;SDS011;9853;50.848;4.108;2023-08-07T02:41:48;1.83;;;0.77;;
19434;SDS011;9853;50.848;4.108;2023-08-07T02:43:49;2.35;;;1.00;;
19434;SDS011;9853;50.848;4.108;2023-08-07T02:45:50;1.63;;;1.00;;
19434;SDS011;9853;50.848;4.108;2023-08-07T02:47:51;2.13;;;1.00;;
19434;SDS011;9853;50.848;4.108;2023-08-07T02:49:52;2.97;;;1.00;;
19434;SDS011;9853;50.848;4.108;2023-08-07T02:51:52;1.83;;;1.02;;
19434;SDS011;9853;50.848;4.108;2023-08-07T02:53:53;9.65;;;1.65;;
19434;SDS011;9853;50.848;4.108;2023-08-07T02:55:54;3.25;;;0.80;;
19434;SDS011;9853;50.848;4.108;2023-08-07T02:57:55;2.00;;;1.08;;
19434;SDS011;9853;50.848;4.108;2023-08-07T02:59:55;3.20;;;0.93;;
19434;SDS011;9853;50.848;4.108;2023-08-07T03:01:56;2.03;;;1.00;;
19434;SDS011;9853;50.848;4.108;2023-08-07T03:03:57;2.05;;;0.90;;
19434;SDS011;9853;50.848;4.108;2023-08-07T03:05:57;3.17;;;1.08;;
19434;SDS011;9853;50.848;4.108;2023-08-07T03:07:58;3.35;;;1.30;;
19434;SDS011;9853;50.848;4.108;2023-08-07T03:09:59;1.38;;;1.00;;
19434;SDS011;9853;50.848;4.108;2023-08-07T03:12:00;2.63;;;1.05;;
19434;SDS011;9853;50.848;4.108;2023-08-07T03:14:03;2.13;;;1.10;;
19434;SDS011;9853;50.848;4.108;2023-08-07T03:16:04;2.60;;;1.10;;
19434;SDS011;9853;50.848;4.108;2023-08-07T03:18:06;3.10;;;1.17;;
19434;SDS011;9853;50.848;4.108;2023-08-07T03:20:07;3.72;;;1.50;;
19434;SDS011;9853;50.848;4.108;2023-08-07T03:22:09;2.10;;;0.95;;
19434;SDS011;9853;50.848;4.108;2023-08-07T03:24:10;1.70;;;1.08;;
19434;SDS011;9853;50.848;4.108;2023-08-07T03:26:12;2.42;;;1.15;;
19434;SDS011;9853;50.848;4.108;2023-08-07T03:28:13;2.08;;;1.10;;
19434;SDS011;9853;50.848;4.108;2023-08-07T03:30:14;2.72;;;1.20;;
19434;SDS011;9853;50.848;4.108;2023-08-07T03:32:16;1.92;;;0.80;;
19434;SDS011;9853;50.848;4.108;2023-08-07T03:34:17;3.45;;;1.40;;
19434;SDS011;9853;50.848;4.108;2023-08-07T03:36:18;2.63;;;1.10;;
19434;SDS011;9853;50.848;4.108;2023-08-07T03:38:19;1.77;;;0.90;;
19434;SDS011;9853;50.848;4.108;2023-08-07T03:40:20;5.15;;;1.00;;
19434;SDS011;9853;50.848;4.108;2023-08-07T03:42:21;1.92;;;0.95;;
19434;SDS011;9853;50.848;4.108;2023-08-07T03:44:22;2.45;;;1.35;;
19434;SDS011;9853;50.848;4.108;2023-08-07T03:46:23;2.20;;;1.23;;
19434;SDS011;9853;50.848;4.108;2023-08-07T03:48:25;2.78;;;1.00;;
19434;SDS011;9853;50.848;4.108;2023-08-07T03:50:25;3.30;;;1.30;;
19434;SDS011;9853;50.848;4.108;2023-08-07T03:52:26;2.70;;;1.20;;
19434;SDS011;9853;50.848;4.108;2023-08-07T03:54:27;2.92;;;1.10;;
19434;SDS011;9853;50.848;4.108;2023-08-07T03:56:28;2.60;;;0.93;;
19434;SDS011;9853;50.848;4.108;2023-08-07T03:58:32;1.40;;;0.90;;
19434;SDS011;9853;50.848;4.108;2023-08-07T04:00:34;3.05;;;1.30;;
19434;SDS011;9853;50.848;4.108;2023-08-07T04:02:34;2.38;;;1.13;;
19434;SDS011;9853;50.848;4.108;2023-08-07T04:04:35;3.60;;;1.20;;
19434;SDS011;9853;50.848;4.108;2023-08-07T04:06:36;5.60;;;1.10;;
19434;SDS011;9853;50.848;4.108;2023-08-07T04:08:37;2.22;;;1.02;;
19434;SDS011;9853;50.848;4.108;2023-08-07T04:10:37;5.65;;;1.77;;
19434;SDS011;9853;50.848;4.108;2023-08-07T04:12:38;7.38;;;1.40;;
19434;SDS011;9853;50.848;4.108;2023-08-07T04:14:39;2.30;;;1.10;;
19434;SDS011;9853;50.848;4.108;2023-08-07T04:16:40;3.95;;;1.48;;
19434;SDS011;9853;50.848;4.108;2023-08-07T04:18:40;5.80;;;1.10;;
19434;SDS011;9853;50.848;4.108;2023-08-07T04:20:41;2.08;;;1.02;;
19434;SDS011;9853;50.848;4.108;2023-08-07T04:22:42;2.67;;;1.20;;
19434;SDS011;9853;50.848;4.108;2023-08-07T04:24:46;2.63;;;0.95;;
19434;SDS011;9853;50.848;4.108;2023-08-07T04:26:46;2.90;;;1.13;;
19434;SDS011;9853;50.848;4.108;2023-08-07T04:28:47;2.90;;;1.17;;
19434;SDS011;9853;50.848;4.108;2023-08-07T04:30:51;2.33;;;1.10;;
19434;SDS011;9853;50.848;4.108;2023-08-07T04:32:52;2.25;;;1.02;;
19434;SDS011;9853;50.848;4.108;2023-08-07T04:34:53;2.60;;;1.02;;
19434;SDS011;9853;50.848;4.108;2023-08-07T04:36:53;3.33;;;1.23;;
19434;SDS011;9853;50.848;4.108;2023-08-07T04:38:56;3.42;;;1.23;;
19434;SDS011;9853;50.848;4.108;2023-08-07T04:40:57;6.25;;;1.42;;
19434;SDS011;9853;50.848;4.108;2023-08-07T04:42:58;2.58;;;1.25;;
19434;SDS011;9853;50.848;4.108;2023-08-07T04:44:59;3.13;;;1.30;;
19434;SDS011;9853;50.848;4.108;2023-08-07T04:46:59;4.47;;;1.25;;
19434;SDS011;9853;50.848;4.108;2023-08-07T04:49:00;3.83;;;1.10;;
19434;SDS011;9853;50.848;4.108;2023-08-07T04:51:01;5.72;;;1.13;;
19434;SDS011;9853;50.848;4.108;2023-08-07T04:53:02;2.83;;;1.10;;
19434;SDS011;9853;50.848;4.108;2023-08-07T04:55:04;5.97;;;1.75;;
19434;SDS011;9853;50.848;4.108;2023-08-07T04:57:05;2.97;;;1.15;;
19434;SDS011;9853;50.848;4.108;2023-08-07T04:59:06;3.03;;;0.98;;
19434;SDS011;9853;50.848;4.108;2023-08-07T05:01:07;1.75;;;0.90;;
19434;SDS011;9853;50.848;4.108;2023-08-07T05:03:09;1.58;;;0.98;;
19434;SDS011;9853;50.848;4.108;2023-08-07T05:05:09;3.13;;;1.33;;
19434;SDS011;9853;50.848;4.108;2023-08-07T05:07:10;3.95;;;1.55;;
19434;SDS011;9853;50.848;4.108;2023-08-07T05:09:11;2.35;;;1.02;;
19434;SDS011;9853;50.848;4.108;2023-08-07T05:11:12;6.15;;;1.10;;
19434;SDS011;9853;50.848;4.108;2023-08-07T05:13:13;5.90;;;1.27;;
19434;SDS011;9853;50.848;4.108;2023-08-07T05:15:14;5.03;;;1.45;;
19434;SDS011;9853;50.848;4.108;2023-08-07T05:17:14;3.88;;;1.30;;
19434;SDS011;9853;50.848;4.108;2023-08-07T05:19:15;5.78;;;1.35;;
19434;SDS011;9853;50.848;4.108;2023-08-07T05:21:16;4.20;;;1.00;;
19434;SDS011;9853;50.848;4.108;2023-08-07T05:23:17;1.58;;;0.80;;
19434;SDS011;9853;50.848;4.108;2023-08-07T05:25:18;5.40;;;1.15;;
19434;SDS011;9853;50.848;4.108;2023-08-07T05:27:18;2.40;;;1.10;;
19434;SDS011;9853;50.848;4.108;2023-08-07T05:29:19;3.53;;;1.10;;
19434;SDS011;9853;50.848;4.108;2023-08-07T05:31:20;4.55;;;1.20;;
19434;SDS011;9853;50.848;4.108;2023-08-07T05:33:21;3.55;;;1.52;;
19434;SDS011;9853;50.848;4.108;2023-08-07T05:35:21;5.47;;;1.20;;
19434;SDS011;9853;50.848;4.108;2023-08-07T05:37:22;3.35;;;1.17;;
19434;SDS011;9853;50.848;4.108;2023-08-07T05:39:23;3.88;;;1.10;;
19434;SDS011;9853;50.848;4.108;2023-08-07T05:41:24;4.20;;;1.13;;
19434;SDS011;9853;50.848;4.108;2023-08-07T05:43:24;2.97;;;1.13;;
19434;SDS011;9853;50.848;4.108;2023-08-07T05:45:25;2.40;;;1.20;;
19434;SDS011;9853;50.848;4.108;2023-08-07T05:47:26;3.25;;;1.13;;
19434;SDS011;9853;50.848;4.108;2023-08-07T05:49:27;4.50;;;1.33;;
19434;SDS011;9853;50.848;4.108;2023-08-07T05:51:27;5.45;;;1.10;;
19434;SDS011;9853;50.848;4.108;2023-08-07T05:53:28;4.80;;;1.65;;
19434;SDS011;9853;50.848;4.108;2023-08-07T05:55:29;2.03;;;1.10;;
19434;SDS011;9853;50.848;4.108;2023-08-07T05:57:30;2.97;;;1.23;;
19434;SDS011;9853;50.848;4.108;2023-08-07T05:59:31;3.63;;;1.50;;
19434;SDS011;9853;50.848;4.108;2023-08-07T06:01:34;5.85;;;1.20;;
19434;SDS011;9853;50.848;4.108;2023-08-07T06:03:37;2.67;;;1.40;;
19434;SDS011;9853;50.848;4.108;2023-08-07T06:05:38;3.08;;;1.40;;
19434;SDS011;9853;50.848;4.108;2023-08-07T06:07:39;5.88;;;1.67;;
19434;SDS011;9853;50.848;4.108;2023-08-07T06:09:39;3.95;;;1.50;;
19434;SDS011;9853;50.848;4.108;2023-08-07T06:11:40;3.75;;;1.27;;
19434;SDS011;9853;50.848;4.108;2023-08-07T06:13:41;5.75;;;1.60;;
19434;SDS011;9853;50.848;4.108;2023-08-07T06:15:42;5.22;;;1.75;;
19434;SDS011;9853;50.848;4.108;2023-08-07T06:17:42;2.55;;;1.33;;
19434;SDS011;9853;50.848;4.108;2023-08-07T06:19:43;2.50;;;1.27;;
19434;SDS011;9853;50.848;4.108;2023-08-07T06:21:44;2.33;;;1.00;;
19434;SDS011;9853;50.848;4.108;2023-08-07T06:23:45;3.88;;;1.10;;
19434;SDS011;9853;50.848;4.108;2023-08-07T06:25:46;6.07;;;1.80;;
19434;SDS011;9853;50.848;4.108;2023-08-07T06:27:46;3.60;;;1.33;;
19434;SDS011;9853;50.848;4.108;2023-08-07T06:29:47;2.67;;;1.30;;
19434;SDS011;9853;50.848;4.108;2023-08-07T06:31:48;5.85;;;1.60;;
19434;SDS011;9853;50.848;4.108;2023-08-07T06:33:49;2.78;;;1.40;;
19434;SDS011;9853;50.848;4.108;2023-08-07T06:35:51;3.20;;;1.63;;
19434;SDS011;9853;50.848;4.108;2023-08-07T06:37:52;4.22;;;1.52;;
19434;SDS011;9853;50.848;4.108;2023-08-07T06:39:53;4.00;;;1.70;;
19434;SDS011;9853;50.848;4.108;2023-08-07T06:41:54;2.22;;;1.25;;
19434;SDS011;9853;50.848;4.108;2023-08-07T06:44:01;4.32;;;1.50;;
19434;SDS011;9853;50.848;4.108;2023-08-07T06:46:02;7.22;;;1.50;;
19434;SDS011;9853;50.848;4.108;2023-08-07T06:48:03;5.50;;;1.75;;
19434;SDS011;9853;50.848;4.108;2023-08-07T06:50:04;2.00;;;1.33;;
19434;SDS011;9853;50.848;4.108;2023-08-07T06:52:05;3.47;;;1.30;;
19434;SDS011;9853;50.848;4.108;2023-08-07T06:54:06;5.53;;;1.27;;
19434;SDS011;9853;50.848;4.108;2023-08-07T06:56:07;4.20;;;1.65;;
19434;SDS011;9853;50.848;4.108;2023-08-07T06:58:07;5.07;;;1.60;;
19434;SDS011;9853;50.848;4.108;2023-08-07T07:00:09;3.53;;;1.30;;
19434;SDS011;9853;50.848;4.108;2023-08-07T07:02:11;4.60;;;1.75;;
19434;SDS011;9853;50.848;4.108;2023-08-07T07:04:11;3.65;;;1.55;;
19434;SDS011;9853;50.848;4.108;2023-08-07T07:06:12;6.60;;;1.50;;
19434;SDS011;9853;50.848;4.108;2023-08-07T07:08:13;6.15;;;1.85;;
19434;SDS011;9853;50.848;4.108;2023-08-07T07:10:14;8.73;;;1.60;;
19434;SDS011;9853;50.848;4.108;2023-08-07T07:12:15;8.43;;;1.70;;
19434;SDS011;9853;50.848;4.108;2023-08-07T07:14:15;3.50;;;1.35;;
19434;SDS011;9853;50.848;4.108;2023-08-07T07:16:17;2.42;;;1.10;;
19434;SDS011;9853;50.848;4.108;2023-08-07T07:18:18;3.17;;;1.25;;
19434;SDS011;9853;50.848;4.108;2023-08-07T07:20:19;4.88;;;1.30;;
19434;SDS011;9853;50.848;4.108;2023-08-07T07:22:20;3.55;;;1.15;;
19434;SDS011;9853;50.848;4.108;2023-08-07T07:24:21;5.43;;;1.00;;
19434;SDS011;9853;50.848;4.108;2023-08-07T07:26:21;2.55;;;1.20;;
19434;SDS011;9853;50.848;4.108;2023-08-07T07:28:22;3.05;;;1.27;;
19434;SDS011;9853;50.848;4.108;2023-08-07T07:30:23;2.33;;;1.27;;
19434;SDS011;9853;50.848;4.108;2023-08-07T07:32:24;3.38;;;0.90;;
19434;SDS011;9853;50.848;4.108;2023-08-07T07:34:26;2.33;;;1.10;;
19434;SDS011;9853;50.848;4.108;2023-08-07T07:36:27;1.42;;;0.93;;
19434;SDS011;9853;50.848;4.108;2023-08-07T07:38:27;1.98;;;0.75;;
19434;SDS011;9853;50.848;4.108;2023-08-07T07:40:28;2.53;;;0.93;;
19434;SDS011;9853;50.848;4.108;2023-08-07T07:42:29;3.03;;;1.08;;
19434;SDS011;9853;50.848;4.108;2023-08-07T07:44:30;4.28;;;0.90;;
19434;SDS011;9853;50.848;4.108;2023-08-07T07:46:31;3.58;;;1.05;;
19434;SDS011;9853;50.848;4.108;2023-08-07T07:48:32;4.78;;;1.00;;
19434;SDS011;9853;50.848;4.108;2023-08-07T07:50:33;4.45;;;1.17;;
19434;SDS011;9853;50.848;4.108;2023-08-07T07:52:34;3.88;;;1.15;;
19434;SDS011;9853;50.848;4.108;2023-08-07T07:54:35;1.52;;;0.70;;
19434;SDS011;9853;50.848;4.108;2023-08-07T07:56:35;2.33;;;0.90;;
19434;SDS011;9853;50.848;4.108;2023-08-07T07:58:36;1.95;;;0.90;;
19434;SDS011;9853;50.848;4.108;2023-08-07T08:00:37;2.60;;;0.80;;
19434;SDS011;9853;50.848;4.108;2023-08-07T08:02:38;1.90;;;0.80;;
19434;SDS011;9853;50.848;4.108;2023-08-07T08:04:41;1.83;;;0.80;;
19434;SDS011;9853;50.848;4.108;2023-08-07T08:06:42;4.93;;;0.80;;
19434;SDS011;9853;50.848;4.108;2023-08-07T08:08:42;1.70;;;0.80;;
19434;SDS011;9853;50.848;4.108;2023-08-07T08:10:44;2.53;;;1.10;;
19434;SDS011;9853;50.848;4.108;2023-08-07T08:12:47;2.40;;;0.70;;
19434;SDS011;9853;50.848;4.108;2023-08-07T08:14:48;2.58;;;1.08;;
19434;SDS011;9853;50.848;4.108;2023-08-07T08:16:48;2.67;;;0.90;;
19434;SDS011;9853;50.848;4.108;2023-08-07T08:18:50;1.35;;;0.90;;
19434;SDS011;9853;50.848;4.108;2023-08-07T08:20:50;3.25;;;1.40;;
19434;SDS011;9853;50.848;4.108;2023-08-07T08:22:51;1.63;;;0.90;;
19434;SDS011;9853;50.848;4.108;2023-08-07T08:24:52;3.80;;;0.82;;
19434;SDS011;9853;50.848;4.108;2023-08-07T08:26:53;4.05;;;1.05;;
19434;SDS011;9853;50.848;4.108;2023-08-07T08:28:54;3.30;;;0.98;;
19434;SDS011;9853;50.848;4.108;2023-08-07T08:30:55;2.05;;;0.80;;
19434;SDS011;9853;50.848;4.108;2023-08-07T08:32:56;2.90;;;0.90;;
19434;SDS011;9853;50.848;4.108;2023-08-07T08:34:57;2.13;;;0.80;;
19434;SDS011;9853;50.848;4.108;2023-08-07T08:36:57;2.15;;;0.85;;
19434;SDS011;9853;50.848;4.108;2023-08-07T08:38:58;1.48;;;0.80;;
19434;SDS011;9853;50.848;4.108;2023-08-07T08:40:59;6.28;;;0.90;;
19434;SDS011;9853;50.848;4.108;2023-08-07T08:43:04;3.13;;;0.90;;
19434;SDS011;9853;50.848;4.108;2023-08-07T08:45:05;2.15;;;1.00;;
19434;SDS011;9853;50.848;4.108;2023-08-07T08:47:13;1.60;;;0.90;;
19434;SDS011;9853;50.848;4.108;2023-08-07T08:49:16;1.52;;;0.90;;
19434;SDS011;9853;50.848;4.108;2023-08-07T08:51:27;2.85;;;0.80;;
19434;SDS011;9853;50.848;4.108;2023-08-07T08:53:28;3.00;;;0.68;;
19434;SDS011;9853;50.848;4.108;2023-08-07T08:55:29;1.85;;;0.63;;
19434;SDS011;9853;50.848;4.108;2023-08-07T08:57:30;5.47;;;0.82;;
19434;SDS011;9853;50.848;4.108;2023-08-07T08:59:33;2.95;;;0.80;;
19434;SDS011;9853;50.848;4.108;2023-08-07T09:01:34;2.90;;;1.00;;
19434;SDS011;9853;50.848;4.108;2023-08-07T09:03:35;1.90;;;0.70;;
19434;SDS011;9853;50.848;4.108;2023-08-07T09:05:36;3.72;;;0.77;;
19434;SDS011;9853;50.848;4.108;2023-08-07T09:07:37;1.83;;;0.80;;
19434;SDS011;9853;50.848;4.108;2023-08-07T09:09:38;2.08;;;0.68;;
19434;SDS011;9853;50.848;4.108;2023-08-07T09:11:41;2.03;;;0.75;;
19434;SDS011;9853;50.848;4.108;2023-08-07T09:13:43;1.25;;;0.68;;
19434;SDS011;9853;50.848;4.108;2023-08-07T09:15:47;6.13;;;1.10;;
19434;SDS011;9853;50.848;4.108;2023-08-07T09:17:50;1.05;;;0.52;;
19434;SDS011;9853;50.848;4.108;2023-08-07T09:19:52;2.10;;;0.85;;
19434;SDS011;9853;50.848;4.108;2023-08-07T09:21:53;1.63;;;0.65;;
19434;SDS011;9853;50.848;4.108;2023-08-07T09:23:54;0.82;;;0.50;;
19434;SDS011;9853;50.848;4.108;2023-08-07T09:25:58;4.20;;;0.60;;
19434;SDS011;9853;50.848;4.108;2023-08-07T09:28:04;1.10;;;0.60;;
19434;SDS011;9853;50.848;4.108;2023-08-07T09:30:06;0.98;;;0.60;;
19434;SDS011;9853;50.848;4.108;2023-08-07T09:32:13;0.93;;;0.60;;
19434;SDS011;9853;50.848;4.108;2023-08-07T09:34:14;2.22;;;0.70;;
19434;SDS011;9853;50.848;4.108;2023-08-07T09:36:18;3.63;;;1.05;;
19434;SDS011;9853;50.848;4.108;2023-08-07T09:38:18;1.40;;;0.70;;
19434;SDS011;9853;50.848;4.108;2023-08-07T09:40:22;1.50;;;0.70;;
19434;SDS011;9853;50.848;4.108;2023-08-07T09:42:23;1.52;;;0.77;;
19434;SDS011;9853;50.848;4.108;2023-08-07T09:44:24;0.95;;;0.63;;
19434;SDS011;9853;50.848;4.108;2023-08-07T09:46:27;0.95;;;0.57;;
19434;SDS011;9853;50.848;4.108;2023-08-07T09:48:28;1.58;;;0.75;;
19434;SDS011;9853;50.848;4.108;2023-08-07T09:50:29;1.48;;;0.80;;
19434;SDS011;9853;50.848;4.108;2023-08-07T09:52:31;1.23;;;0.70;;
19434;SDS011;9853;50.848;4.108;2023-08-07T09:54:32;1.85;;;0.85;;
19434;SDS011;9853;50.848;4.108;2023-08-07T09:56:34;1.02;;;0.60;;
19434;SDS011;9853;50.848;4.108;2023-08-07T09:58:36;3.22;;;0.80;;
19434;SDS011;9853;50.848;4.108;2023-08-07T10:00:37;1.10;;;0.70;;
19434;SDS011;9853;50.848;4.108;2023-08-07T10:02:40;1.10;;;0.50;;
19434;SDS011;9853;50.848;4.108;2023-08-07T10:04:42;0.82;;;0.40;;
19434;SDS011;9853;50.848;4.108;2023-08-07T10:06:43;0.80;;;0.60;;
19434;SDS011;9853;50.848;4.108;2023-08-07T10:08:45;1.73;;;0.50;;
19434;SDS011;9853;50.848;4.108;2023-08-07T10:10:47;1.90;;;0.50;;
19434;SDS011;9853;50.848;4.108;2023-08-07T10:12:48;1.25;;;0.80;;
19434;SDS011;9853;50.848;4.108;2023-08-07T10:14:49;1.20;;;0.88;;
19434;SDS011;9853;50.848;4.108;2023-08-07T10:16:51;4.53;;;0.90;;
19434;SDS011;9853;50.848;4.108;2023-08-07T10:18:53;1.55;;;0.80;;
19434;SDS011;9853;50.848;4.108;2023-08-07T10:20:54;1.65;;;0.90;;
19434;SDS011;9853;50.848;4.108;2023-08-07T10:23:00;1.98;;;0.90;;
19434;SDS011;9853;50.848;4.108;2023-08-07T10:25:03;1.58;;;0.63;;
19434;SDS011;9853;50.848;4.108;2023-08-07T10:27:06;0.52;;;0.50;;
19434;SDS011;9853;50.848;4.108;2023-08-07T10:29:09;1.30;;;0.73;;
19434;SDS011;9853;50.848;4.108;2023-08-07T10:31:13;2.22;;;0.80;;
19434;SDS011;9853;50.848;4.108;2023-08-07T10:33:15;0.93;;;0.57;;
19434;SDS011;9853;50.848;4.108;2023-08-07T10:35:25;1.85;;;0.50;;
19434;SDS011;9853;50.848;4.108;2023-08-07T10:37:37;1.02;;;0.57;;
19434;SDS011;9853;50.848;4.108;2023-08-07T10:40:01;4.53;;;1.00;;
19434;SDS011;9853;50.848;4.108;2023-08-07T10:42:04;1.52;;;0.73;;
19434;SDS011;9853;50.848;4.108;2023-08-07T10:44:05;1.90;;;0.70;;
19434;SDS011;9853;50.848;4.108;2023-08-07T10:46:06;1.42;;;0.75;;
19434;SDS011;9853;50.848;4.108;2023-08-07T10:48:11;0.70;;;0.60;;
19434;SDS011;9853;50.848;4.108;2023-08-07T10:50:13;1.98;;;0.80;;
19434;SDS011;9853;50.848;4.108;2023-08-07T10:52:14;1.17;;;0.50;;
19434;SDS011;9853;50.848;4.108;2023-08-07T10:54:15;1.63;;;0.52;;
19434;SDS011;9853;50.848;4.108;2023-08-07T10:56:35;0.80;;;0.60;;
19434;SDS011;9853;50.848;4.108;2023-08-07T10:58:41;1.00;;;0.50;;
19434;SDS011;9853;50.848;4.108;2023-08-07T11:00:42;1.42;;;0.47;;
19434;SDS011;9853;50.848;4.108;2023-08-07T11:02:42;1.27;;;0.63;;
19434;SDS011;9853;50.848;4.108;2023-08-07T11:04:48;3.53;;;1.17;;
19434;SDS011;9853;50.848;4.108;2023-08-07T11:06:49;4.40;;;0.80;;
19434;SDS011;9853;50.848;4.108;2023-08-07T11:08:50;1.10;;;0.77;;
19434;SDS011;9853;50.848;4.108;2023-08-07T11:10:51;1.27;;;0.60;;
19434;SDS011;9853;50.848;4.108;2023-08-07T11:12:57;1.58;;;0.65;;
19434;SDS011;9853;50.848;4.108;2023-08-07T11:14:58;1.90;;;0.70;;
19434;SDS011;9853;50.848;4.108;2023-08-07T11:16:59;1.00;;;0.60;;
19434;SDS011;9853;50.848;4.108;2023-08-07T11:19:00;0.98;;;0.60;;
19434;SDS011;9853;50.848;4.108;2023-08-07T11:21:01;1.60;;;0.70;;
19434;SDS011;9853;50.848;4.108;2023-08-07T11:23:02;0.63;;;0.60;;
19434;SDS011;9853;50.848;4.108;2023-08-07T11:25:04;0.75;;;0.60;;
19434;SDS011;9853;50.848;4.108;2023-08-07T11:27:07;0.93;;;0.52;;
19434;SDS011;9853;50.848;4.108;2023-08-07T11:29:08;1.10;;;0.55;;
19434;SDS011;9853;50.848;4.108;2023-08-07T11:31:09;1.33;;;0.55;;
19434;SDS011;9853;50.848;4.108;2023-08-07T11:33:10;0.88;;;0.52;;
19434;SDS011;9853;50.848;4.108;2023-08-07T11:35:11;2.20;;;1.85;;
19434;SDS011;9853;50.848;4.108;2023-08-07T11:37:15;0.80;;;0.55;;
19434;SDS011;9853;50.848;4.108;2023-08-07T11:39:17;0.85;;;0.68;;
19434;SDS011;9853;50.848;4.108;2023-08-07T11:41:19;5.50;;;0.50;;
19434;SDS011;9853;50.848;4.108;2023-08-07T11:43:20;3.90;;;1.13;;
19434;SDS011;9853;50.848;4.108;2023-08-07T11:45:21;0.80;;;0.60;;
19434;SDS011;9853;50.848;4.108;2023-08-07T11:47:22;0.80;;;0.50;;
19434;SDS011;9853;50.848;4.108;2023-08-07T11:49:23;0.93;;;0.50;;
19434;SDS011;9853;50.848;4.108;2023-08-07T11:51:24;1.60;;;0.47;;
19434;SDS011;9853;50.848;4.108;2023-08-07T11:53:26;0.60;;;0.50;;
19434;SDS011;9853;50.848;4.108;2023-08-07T11:55:28;0.63;;;0.50;;
19434;SDS011;9853;50.848;4.108;2023-08-07T11:57:30;0.98;;;0.60;;
19434;SDS011;9853;50.848;4.108;2023-08-07T11:59:31;0.85;;;0.45;;
19434;SDS011;9853;50.848;4.108;2023-08-07T12:01:36;3.00;;;0.50;;
19434;SDS011;9853;50.848;4.108;2023-08-07T12:03:39;0.98;;;0.47;;
19434;SDS011;9853;50.848;4.108;2023-08-07T12:05:42;1.20;;;0.50;;
19434;SDS011;9853;50.848;4.108;2023-08-07T12:07:43;0.88;;;0.60;;
19434;SDS011;9853;50.848;4.108;2023-08-07T12:09:43;0.98;;;0.40;;
19434;SDS011;9853;50.848;4.108;2023-08-07T12:11:44;0.40;;;0.40;;
19434;SDS011;9853;50.848;4.108;2023-08-07T12:13:45;0.85;;;0.60;;
19434;SDS011;9853;50.848;4.108;2023-08-07T12:15:46;1.48;;;0.55;;
19434;SDS011;9853;50.848;4.108;2023-08-07T12:17:50;4.88;;;0.90;;
19434;SDS011;9853;50.848;4.108;2023-08-07T12:20:02;1.33;;;0.75;;
19434;SDS011;9853;50.848;4.108;2023-08-07T12:22:07;1.15;;;0.63;;
19434;SDS011;9853;50.848;4.108;2023-08-07T12:24:10;0.70;;;0.52;;
19434;SDS011;9853;50.848;4.108;2023-08-07T12:26:12;0.70;;;0.50;;